createdAt,value
2018-08-23T00:00:49.071Z,67.02
2018-08-23T00:01:53.849Z,67.25
2018-08-23T00:02:58.983Z,67.73
2018-08-23T00:04:07.959Z,67.99
2018-08-23T00:05:12.673Z,68.62
2018-08-23T00:06:17.359Z,68.40
2018-08-23T00:07:22.081Z,68.69
2018-08-23T00:08:27.430Z,68.62
2018-08-23T00:09:36.997Z,68.79
2018-08-23T00:10:42.157Z,68.76
2018-08-23T00:11:47.536Z,68.87
2018-08-23T00:12:57.241Z,68.70
2018-08-23T00:14:02.603Z,68.61
2018-08-23T00:15:08.611Z,68.42
2018-08-23T00:16:13.962Z,68.44
2018-08-23T00:17:18.596Z,68.47
2018-08-23T00:18:24.065Z,68.37
2018-08-23T00:19:28.706Z,68.21
2018-08-23T00:20:33.337Z,68.13
2018-08-23T00:21:49.944Z,68.56
2018-08-23T00:22:54.580Z,68.55
2018-08-23T00:24:05.377Z,68.03
2018-08-23T00:25:10.255Z,68.52
2018-08-23T00:26:16.825Z,68.59
2018-08-23T00:27:27.092Z,68.87
2018-08-23T00:28:31.732Z,69.15
2018-08-23T00:29:36.315Z,69.35
2018-08-23T00:30:42.156Z,69.13
2018-08-23T00:31:52.054Z,69.29
2018-08-23T00:32:57.103Z,69.15
2018-08-23T00:34:01.849Z,69.24
2018-08-23T00:35:11.147Z,69.04
2018-08-23T00:36:15.738Z,69.12
2018-08-23T00:37:20.612Z,69.20
2018-08-23T00:38:25.427Z,69.20
2018-08-23T00:39:30.780Z,68.98
2018-08-23T00:40:43.548Z,69.34
2018-08-23T00:41:53.073Z,69.31
2018-08-23T00:43:04.448Z,69.45
2018-08-23T00:44:09.119Z,69.44
2018-08-23T00:45:16.592Z,69.88
2018-08-23T00:46:22.263Z,69.61
2018-08-23T00:47:29.682Z,69.74
2018-08-23T00:48:34.353Z,70.04
2018-08-23T00:49:39.418Z,70.55
2018-08-23T00:50:51.856Z,70.99
2018-08-23T00:51:57.167Z,71.38
2018-08-23T00:53:03.499Z,71.53
2018-08-23T00:54:09.214Z,71.57
2018-08-23T00:55:15.396Z,71.96
2018-08-23T00:56:22.167Z,71.94
2018-08-23T00:57:27.026Z,72.04
2018-08-23T00:58:32.853Z,71.80
2018-08-23T00:59:38.284Z,71.84
2018-08-23T01:00:48.923Z,71.97
2018-08-23T01:02:01.655Z,71.73
2018-08-23T01:03:06.620Z,71.65
2018-08-23T01:04:12.111Z,71.57
2018-08-23T01:05:21.868Z,71.34
2018-08-23T01:06:32.443Z,71.39
2018-08-23T01:07:37.082Z,71.19
2018-08-23T01:08:41.756Z,71.35
2018-08-23T01:09:46.481Z,71.21
2018-08-23T01:10:51.902Z,70.91
2018-08-23T01:11:56.898Z,70.95
2018-08-23T01:13:04.358Z,71.01
2018-08-23T01:14:09.633Z,70.92
2018-08-23T01:15:14.328Z,71.07
2018-08-23T01:16:19.591Z,71.09
2018-08-23T01:17:24.221Z,71.14
2018-08-23T01:18:29.151Z,70.92
2018-08-23T01:19:38.847Z,70.91
2018-08-23T01:20:44.850Z,70.95
2018-08-23T01:21:53.928Z,70.81
2018-08-23T01:23:01.545Z,71.07
2018-08-23T01:24:07.673Z,71.24
2018-08-23T01:25:14.268Z,71.30
2018-08-23T01:26:21.956Z,71.22
2018-08-23T01:27:32.759Z,71.34
2018-08-23T01:28:38.394Z,71.24
2018-08-23T01:29:44.415Z,71.61
2018-08-23T01:30:50.565Z,71.52
2018-08-23T01:31:56.629Z,71.67
2018-08-23T01:33:02.124Z,71.99
2018-08-23T01:34:06.754Z,72.16
2018-08-23T01:35:11.480Z,71.97
2018-08-23T01:36:20.310Z,72.04
2018-08-23T01:37:34.604Z,71.94
2018-08-23T01:38:39.235Z,72.12
2018-08-23T01:39:43.847Z,72.45
2018-08-23T01:40:48.540Z,72.88
2018-08-23T01:41:53.205Z,73.31
2018-08-23T01:42:58.404Z,73.59
2018-08-23T01:44:03.793Z,74.53
2018-08-23T01:45:09.245Z,74.75
2018-08-23T01:46:14.044Z,75.01
2018-08-23T01:47:18.674Z,75.15
2018-08-23T01:48:23.261Z,75.08
2018-08-23T01:49:28.295Z,75.83
2018-08-23T01:50:33.381Z,75.90
2018-08-23T01:51:38.096Z,75.82
2018-08-23T01:52:46.812Z,76.05
2018-08-23T01:53:51.361Z,76.31
2018-08-23T01:54:55.991Z,76.58
2018-08-23T01:56:00.622Z,76.16
2018-08-23T01:57:05.528Z,76.64
2018-08-23T01:58:10.121Z,76.69
2018-08-23T01:59:14.755Z,76.42
2018-08-23T02:00:21.532Z,76.95
2018-08-23T02:01:27.328Z,76.99
2018-08-23T02:02:31.907Z,77.08
2018-08-23T02:03:36.884Z,76.73
2018-08-23T02:04:41.503Z,76.86
2018-08-23T02:05:46.094Z,76.79
2018-08-23T02:06:50.791Z,77.07
2018-08-23T02:07:55.364Z,77.39
2018-08-23T02:08:59.923Z,78.09
2018-08-23T02:10:04.923Z,78.60
2018-08-23T02:11:09.488Z,78.79
2018-08-23T02:12:14.050Z,78.89
2018-08-23T02:13:25.503Z,78.94
2018-08-23T02:14:32.770Z,79.16
2018-08-23T02:15:42.530Z,79.43
2018-08-23T02:16:52.649Z,79.52
2018-08-23T02:17:58.303Z,79.56
2018-08-23T02:19:02.847Z,79.62
2018-08-23T02:20:07.501Z,79.59
2018-08-23T02:21:12.491Z,79.31
2018-08-23T02:22:17.555Z,79.85
2018-08-23T02:23:22.312Z,79.51
2018-08-23T02:24:31.431Z,79.59
2018-08-23T02:25:36.102Z,79.83
2018-08-23T02:26:40.780Z,79.73
2018-08-23T02:27:57.983Z,79.25
2018-08-23T02:29:02.720Z,79.52
2018-08-23T02:30:07.684Z,79.92
2018-08-23T02:31:12.422Z,80.01
2018-08-23T02:32:17.172Z,80.06
2018-08-23T02:33:21.892Z,79.63
2018-08-23T02:34:31.692Z,79.52
2018-08-23T02:35:36.807Z,79.41
2018-08-23T02:36:41.498Z,79.57
2018-08-23T02:37:46.200Z,79.46
2018-08-23T02:38:54.439Z,79.62
2018-08-23T02:39:59.019Z,79.46
2018-08-23T02:41:04.661Z,79.50
2018-08-23T02:42:12.090Z,78.71
2018-08-23T02:43:16.715Z,79.17
2018-08-23T02:44:21.342Z,78.55
2018-08-23T02:45:30.337Z,78.66
2018-08-23T02:46:34.931Z,78.62
2018-08-23T02:47:39.882Z,78.61
2018-08-23T02:48:44.492Z,79.30
2018-08-23T02:49:49.098Z,78.95
2018-08-23T02:50:54.492Z,79.37
2018-08-23T02:51:59.079Z,78.83
2018-08-23T02:53:34.987Z,78.61
2018-08-23T02:54:39.712Z,78.03
2018-08-23T02:55:49.448Z,78.34
2018-08-23T02:56:58.982Z,77.92
2018-08-23T02:58:03.712Z,78.22
2018-08-23T02:59:08.592Z,77.81
2018-08-23T03:00:13.578Z,78.12
2018-08-23T03:01:18.289Z,77.60
2018-08-23T03:02:23.011Z,78.04
2018-08-23T03:03:27.692Z,77.79
2018-08-23T03:04:32.313Z,77.92
2018-08-23T03:05:40.038Z,78.47
2018-08-23T03:06:51.105Z,78.35
2018-08-23T03:07:55.786Z,78.30
2018-08-23T03:09:00.530Z,78.01
2018-08-23T03:10:05.260Z,78.06
2018-08-23T03:11:09.951Z,78.19
2018-08-23T03:12:17.671Z,78.55
2018-08-23T03:13:25.315Z,78.22
2018-08-23T03:14:30.633Z,78.09
2018-08-23T03:15:35.340Z,77.88
2018-08-23T03:16:46.009Z,77.84
2018-08-23T03:17:54.858Z,77.88
2018-08-23T03:18:59.939Z,78.30
2018-08-23T03:20:07.641Z,78.55
2018-08-23T03:21:12.346Z,78.27
2018-08-23T03:22:17.107Z,78.98
2018-08-23T03:23:21.815Z,78.99
2018-08-23T03:24:26.581Z,78.59
2018-08-23T03:25:31.578Z,78.28
2018-08-23T03:26:36.317Z,78.72
2018-08-23T03:27:41.007Z,78.35
2018-08-23T03:28:45.721Z,78.40
2018-08-23T03:29:50.497Z,78.35
2018-08-23T03:31:01.549Z,77.88
2018-08-23T03:32:06.334Z,77.63
2018-08-23T03:33:11.036Z,77.81
2018-08-23T03:34:15.768Z,78.34
2018-08-23T03:35:20.480Z,77.44
2018-08-23T03:36:25.207Z,77.91
2018-08-23T03:37:30.358Z,77.95
2018-08-23T03:38:36.024Z,78.03
2018-08-23T03:39:40.743Z,77.56
2018-08-23T03:40:46.575Z,77.83
2018-08-23T03:41:51.196Z,78.09
2018-08-23T03:42:56.319Z,77.82
2018-08-23T03:44:02.299Z,78.39
2018-08-23T03:45:07.494Z,78.32
2018-08-23T03:46:12.139Z,78.63
2018-08-23T03:47:16.761Z,78.53
2018-08-23T03:48:21.421Z,78.51
2018-08-23T03:49:26.691Z,78.86
2018-08-23T03:50:33.194Z,78.42
2018-08-23T03:51:38.469Z,79.34
2018-08-23T03:52:47.022Z,79.33
2018-08-23T03:54:06.838Z,79.69
2018-08-23T03:55:12.502Z,80.23
2018-08-23T03:56:17.227Z,80.32
2018-08-23T03:57:22.334Z,80.93
2018-08-23T03:58:26.956Z,80.88
2018-08-23T03:59:31.590Z,81.36
2018-08-23T04:01:14.787Z,81.69
2018-08-23T04:02:21.417Z,82.23
2018-08-23T04:03:26.060Z,82.44
2018-08-23T04:04:30.733Z,83.01
2018-08-23T04:05:35.414Z,83.45
2018-08-23T04:06:40.092Z,83.64
2018-08-23T04:07:45.238Z,83.55
2018-08-23T04:08:50.115Z,83.95
2018-08-23T04:09:55.192Z,84.14
2018-08-23T04:10:59.814Z,84.65
2018-08-23T04:12:04.916Z,84.85
2018-08-23T04:13:09.735Z,85.32
2018-08-23T04:14:14.495Z,85.24
2018-08-23T04:15:24.230Z,85.14
2018-08-23T04:16:30.908Z,85.21
2018-08-23T04:17:35.676Z,85.15
2018-08-23T04:18:40.456Z,85.19
2018-08-23T04:19:47.938Z,84.88
2018-08-23T04:20:55.194Z,84.40
2018-08-23T04:22:00.035Z,84.23
2018-08-23T04:23:05.540Z,84.06
2018-08-23T04:24:10.234Z,83.89
2018-08-23T04:25:14.903Z,84.11
2018-08-23T04:26:20.629Z,83.86
2018-08-23T04:27:25.512Z,84.06
2018-08-23T04:28:30.135Z,84.06
2018-08-23T04:29:39.858Z,84.36
2018-08-23T04:30:45.247Z,84.38
2018-08-23T04:31:49.895Z,84.43
2018-08-23T04:32:54.972Z,84.42
2018-08-23T04:33:59.635Z,84.22
2018-08-23T04:35:08.017Z,83.98
2018-08-23T04:36:20.998Z,83.32
2018-08-23T04:37:25.997Z,83.35
2018-08-23T04:38:30.711Z,83.30
2018-08-23T04:39:35.664Z,82.69
2018-08-23T04:40:40.650Z,82.67
2018-08-23T04:41:45.782Z,82.44
2018-08-23T04:42:50.760Z,82.33
2018-08-23T04:43:59.032Z,82.82
2018-08-23T04:45:11.310Z,82.49
2018-08-23T04:46:20.076Z,82.34
2018-08-23T04:47:25.077Z,82.01
2018-08-23T04:48:31.020Z,82.16
2018-08-23T04:49:36.883Z,81.69
2018-08-23T04:50:41.631Z,82.30
2018-08-23T04:51:46.356Z,81.61
2018-08-23T04:52:51.100Z,82.00
2018-08-23T04:53:56.142Z,81.93
2018-08-23T04:55:00.986Z,81.56
2018-08-23T04:56:06.354Z,81.26
2018-08-23T04:57:11.115Z,81.58
2018-08-23T04:58:16.441Z,81.69
2018-08-23T04:59:21.209Z,80.80
2018-08-23T05:00:28.175Z,80.92
2018-08-23T05:01:32.971Z,81.47
2018-08-23T05:02:37.810Z,81.56
2018-08-23T05:03:42.551Z,81.50
2018-08-23T05:04:47.681Z,81.66
2018-08-23T05:05:52.406Z,82.26
2018-08-23T05:06:57.197Z,82.21
2018-08-23T05:08:02.390Z,82.60
2018-08-23T05:09:08.554Z,82.61
2018-08-23T05:10:13.515Z,82.26
2018-08-23T05:11:19.339Z,82.32
2018-08-23T05:12:25.094Z,82.50
2018-08-23T05:13:30.226Z,82.47
2018-08-23T05:14:35.930Z,82.55
2018-08-23T05:15:41.894Z,82.85
2018-08-23T05:16:46.580Z,83.35
2018-08-23T05:17:51.845Z,83.67
2018-08-23T05:18:57.451Z,83.11
2018-08-23T05:20:02.437Z,83.12
2018-08-23T05:21:07.193Z,83.54
2018-08-23T05:22:12.959Z,83.94
2018-08-23T05:23:19.695Z,84.13
2018-08-23T05:24:25.754Z,83.66
2018-08-23T05:25:30.710Z,83.82
2018-08-23T05:26:35.818Z,84.07
2018-08-23T05:27:48.689Z,83.64
2018-08-23T05:29:00.458Z,83.70
2018-08-23T05:30:05.738Z,83.83
2018-08-23T05:33:37.016Z,83.93
2018-08-23T05:34:41.831Z,83.95
2018-08-23T05:35:47.735Z,84.23
2018-08-23T05:36:52.479Z,84.26
2018-08-23T05:37:57.282Z,84.34
2018-08-23T05:39:02.896Z,83.85
2018-08-23T05:40:08.313Z,84.19
2018-08-23T05:41:14.276Z,84.40
2018-08-23T05:43:21.659Z,84.43
2018-08-23T05:44:26.206Z,83.80
2018-08-23T05:45:36.449Z,83.88
2018-08-23T05:46:45.519Z,83.44
2018-08-23T05:47:50.182Z,83.19
2018-08-23T05:48:54.879Z,83.10
2018-08-23T05:50:00.050Z,82.67
2018-08-23T05:51:08.221Z,82.60
2018-08-23T05:52:13.118Z,82.16
2018-08-23T05:53:18.582Z,82.52
2018-08-23T05:54:24.030Z,82.68
2018-08-23T05:55:29.348Z,82.79
2018-08-23T05:56:33.992Z,82.58
2018-08-23T05:57:38.596Z,82.73
2018-08-23T05:58:44.067Z,82.47
2018-08-23T05:59:48.724Z,82.33
2018-08-23T06:00:53.454Z,82.62
2018-08-23T06:02:00.226Z,82.09
2018-08-23T06:03:05.843Z,82.54
2018-08-23T06:04:10.480Z,81.64
2018-08-23T06:05:15.576Z,81.58
2018-08-23T06:06:20.562Z,81.40
2018-08-23T06:07:25.208Z,81.89
2018-08-23T06:08:30.535Z,81.61
2018-08-23T06:09:35.544Z,81.57
2018-08-23T06:10:40.259Z,81.20
2018-08-23T06:11:45.966Z,81.31
2018-08-23T06:12:50.707Z,81.25
2018-08-23T06:13:55.535Z,81.15
2018-08-23T06:15:00.261Z,80.54
2018-08-23T06:16:05.059Z,79.69
2018-08-23T06:17:09.890Z,79.76
2018-08-23T06:18:17.773Z,79.23
2018-08-23T06:19:22.745Z,79.35
2018-08-23T06:20:29.643Z,79.14
2018-08-23T06:21:34.546Z,79.05
2018-08-23T06:22:39.540Z,78.74
2018-08-23T06:24:03.331Z,78.97
2018-08-23T06:25:09.065Z,78.70
2018-08-23T06:26:13.933Z,78.44
2018-08-23T06:27:19.248Z,78.43
2018-08-23T06:28:25.362Z,78.62
2018-08-23T06:29:32.208Z,78.36
2018-08-23T06:30:38.350Z,78.63
2018-08-23T06:31:51.175Z,77.70
2018-08-23T06:33:00.091Z,78.17
2018-08-23T06:34:05.876Z,77.96
2018-08-23T06:35:10.607Z,78.40
2018-08-23T06:36:15.429Z,78.53
2018-08-23T06:37:21.436Z,78.86
2018-08-23T06:38:26.220Z,78.69
2018-08-23T06:39:30.966Z,78.46
2018-08-23T06:40:36.583Z,77.78
2018-08-23T06:41:43.642Z,77.93
2018-08-23T06:43:19.338Z,77.60
2018-08-23T06:44:24.483Z,77.37
2018-08-23T06:45:29.898Z,77.23
2018-08-23T06:46:35.163Z,77.75
2018-08-23T06:47:41.523Z,77.81
2018-08-23T06:48:47.158Z,77.84
2018-08-23T06:49:53.274Z,77.47
2018-08-23T06:50:59.139Z,77.22
2018-08-23T06:52:09.354Z,77.34
2018-08-23T06:53:15.358Z,77.43
2018-08-23T06:54:20.156Z,76.90
2018-08-23T06:55:29.951Z,76.50
2018-08-23T06:56:37.842Z,76.05
2018-08-23T06:57:44.512Z,75.61
2018-08-23T06:58:50.264Z,75.20
2018-08-23T06:59:55.041Z,74.79
2018-08-23T07:01:00.552Z,74.22
2018-08-23T07:02:06.676Z,73.55
2018-08-23T07:03:12.255Z,73.56
2018-08-23T07:04:17.611Z,73.03
2018-08-23T07:05:22.461Z,73.00
2018-08-23T07:06:27.207Z,72.03
2018-08-23T07:07:32.916Z,72.15
2018-08-23T07:08:37.725Z,72.14
2018-08-23T07:09:42.472Z,72.39
2018-08-23T07:10:47.319Z,72.25
2018-08-23T07:11:52.390Z,71.83
2018-08-23T07:12:57.976Z,72.30
2018-08-23T07:14:09.777Z,72.17
2018-08-23T07:15:15.506Z,72.11
2018-08-23T07:16:20.266Z,72.41
2018-08-23T07:17:26.787Z,72.63
2018-08-23T07:18:32.143Z,72.45
2018-08-23T07:19:36.900Z,72.27
2018-08-23T07:20:42.000Z,71.91
2018-08-23T07:21:48.609Z,72.19
2018-08-23T07:22:53.756Z,72.56
2018-08-23T07:23:58.492Z,71.90
2018-08-23T07:25:03.373Z,71.67
2018-08-23T07:26:08.249Z,70.75
2018-08-23T07:27:14.515Z,71.06
2018-08-23T07:28:19.280Z,71.24
2018-08-23T07:29:24.029Z,71.46
2018-08-23T07:30:32.503Z,71.71
2018-08-23T07:31:37.530Z,70.71
2018-08-23T07:32:47.980Z,70.92
2018-08-23T07:33:53.336Z,70.36
2018-08-23T07:35:03.526Z,70.39
2018-08-23T07:36:16.521Z,70.28
2018-08-23T07:37:22.674Z,70.19
2018-08-23T07:38:27.320Z,70.04
2018-08-23T07:39:33.561Z,70.43
2018-08-23T07:40:39.094Z,70.07
2018-08-23T07:41:43.819Z,70.83
2018-08-23T07:42:50.614Z,70.30
2018-08-23T07:43:56.663Z,68.77
2018-08-23T07:45:02.561Z,68.35
2018-08-23T07:46:08.521Z,68.51
2018-08-23T07:47:13.179Z,68.00
2018-08-23T07:48:19.488Z,67.62
2018-08-23T07:49:24.561Z,66.84
2018-08-23T07:50:30.142Z,67.44
2018-08-23T07:51:35.087Z,66.89
2018-08-23T07:52:45.638Z,67.29
2018-08-23T07:53:50.404Z,67.28
2018-08-23T07:54:55.387Z,67.12
2018-08-23T07:56:04.265Z,66.41
2018-08-23T07:57:08.871Z,65.99
2018-08-23T07:58:14.377Z,64.30
2018-08-23T07:59:19.896Z,64.62
2018-08-23T08:00:28.640Z,63.79
2018-08-23T08:01:33.879Z,63.71
2018-08-23T08:02:40.461Z,64.18
2018-08-23T08:03:45.216Z,63.71
2018-08-23T08:04:51.012Z,63.59
2018-08-23T08:05:57.033Z,64.10
2018-08-23T08:07:03.130Z,63.39
2018-08-23T08:08:08.612Z,62.40
2018-08-23T08:09:13.539Z,62.33
2018-08-23T08:10:20.732Z,61.90
2018-08-23T08:11:26.604Z,61.59
2018-08-23T08:12:40.188Z,61.59
2018-08-23T08:13:45.344Z,61.65
2018-08-23T08:14:50.215Z,61.41
2018-08-23T08:15:56.656Z,62.00
2018-08-23T08:17:07.959Z,61.09
2018-08-23T08:18:25.954Z,61.15
2018-08-23T08:19:34.933Z,60.21
2018-08-23T08:20:41.242Z,59.72
2018-08-23T08:21:46.064Z,59.60
2018-08-23T08:22:51.840Z,59.45
2018-08-23T08:23:59.364Z,60.24
2018-08-23T08:25:06.663Z,59.56
2018-08-23T08:26:11.544Z,59.74
2018-08-23T08:27:18.711Z,59.17
2018-08-23T08:28:23.478Z,59.29
2018-08-23T08:29:44.667Z,59.97
2018-08-23T08:30:54.414Z,59.82
2018-08-23T08:31:59.640Z,59.92
2018-08-23T08:33:06.823Z,59.54
2018-08-23T08:34:12.553Z,59.36
2018-08-23T08:35:18.672Z,59.68
2018-08-23T08:36:23.628Z,59.52
2018-08-23T08:37:30.046Z,59.15
2018-08-23T08:38:35.250Z,58.88
2018-08-23T08:39:39.913Z,58.89
2018-08-23T08:40:45.407Z,59.25
2018-08-23T08:41:51.411Z,59.49
2018-08-23T08:42:57.126Z,59.48
2018-08-23T08:44:02.682Z,59.54
2018-08-23T08:45:11.351Z,59.65
2018-08-23T08:46:16.248Z,59.81
2018-08-23T08:47:20.947Z,59.68
2018-08-23T08:48:30.946Z,58.98
2018-08-23T08:49:36.359Z,58.88
2018-08-23T08:50:46.085Z,58.58
2018-08-23T08:51:53.666Z,58.74
2018-08-23T08:53:03.542Z,57.86
2018-08-23T08:54:09.702Z,58.67
2018-08-23T08:55:20.814Z,60.02
2018-08-23T08:56:39.684Z,60.85
2018-08-23T08:57:45.686Z,62.08
2018-08-23T08:58:51.271Z,62.66
2018-08-23T08:59:55.988Z,62.15
2018-08-23T09:01:00.608Z,61.28
2018-08-23T09:02:05.560Z,61.96
2018-08-23T09:03:15.028Z,100.00
2018-08-23T09:04:24.765Z,58.93
2018-08-23T09:05:30.296Z,58.58
2018-08-23T09:06:52.480Z,58.71
2018-08-23T09:07:57.581Z,59.64
2018-08-23T09:09:09.263Z,59.94
2018-08-23T09:10:14.092Z,60.61
2018-08-23T09:11:23.737Z,60.18
2018-08-23T09:12:30.567Z,59.75
2018-08-23T09:13:40.843Z,60.82
2018-08-23T09:14:46.511Z,60.84
2018-08-23T09:15:52.208Z,61.06
2018-08-23T09:16:57.001Z,61.22
2018-08-23T09:18:01.866Z,61.35
2018-08-23T09:19:07.202Z,100.00
2018-08-23T09:20:15.375Z,60.74
2018-08-23T09:21:22.952Z,60.08
2018-08-23T09:22:29.297Z,60.47
2018-08-23T09:23:34.666Z,59.87
2018-08-23T09:24:40.223Z,60.71
2018-08-23T09:25:46.657Z,46.74
2018-08-23T09:26:51.460Z,59.95
2018-08-23T09:27:57.091Z,59.75
2018-08-23T09:29:01.870Z,60.20
2018-08-23T09:30:11.423Z,60.00
2018-08-23T09:31:16.383Z,59.87
2018-08-23T09:32:27.412Z,59.03
2018-08-23T09:33:32.171Z,58.50
2018-08-23T09:34:37.751Z,57.78
2018-08-23T09:35:43.080Z,57.76
2018-08-23T09:36:47.788Z,58.64
2018-08-23T09:38:00.513Z,57.97
2018-08-23T09:39:07.489Z,57.42
2018-08-23T09:40:13.266Z,57.09
2018-08-23T09:41:19.431Z,57.28
2018-08-23T09:42:25.537Z,58.19
2018-08-23T09:43:30.333Z,57.65
2018-08-23T09:44:36.276Z,57.45
2018-08-23T09:45:41.945Z,56.06
2018-08-23T09:46:52.730Z,56.41
2018-08-23T09:48:01.193Z,55.42
2018-08-23T09:49:07.287Z,55.52
2018-08-23T09:50:12.864Z,55.75
2018-08-23T09:51:24.260Z,55.86
2018-08-23T09:52:31.020Z,55.66
2018-08-23T09:53:35.686Z,54.78
2018-08-23T09:54:41.630Z,54.66
2018-08-23T09:55:49.390Z,53.88
2018-08-23T09:56:56.590Z,54.18
2018-08-23T09:58:01.945Z,53.54
2018-08-23T09:59:09.781Z,53.06
2018-08-23T10:02:22.753Z,52.08
2018-08-23T10:03:32.765Z,52.89
2018-08-23T10:04:42.355Z,53.67
2018-08-23T10:05:53.346Z,53.85
2018-08-23T10:07:03.266Z,54.04
2018-08-23T10:08:13.280Z,53.77
2018-08-23T10:09:24.561Z,54.10
2018-08-23T10:10:35.045Z,53.84
2018-08-23T10:11:46.417Z,52.82
2018-08-23T10:14:59.292Z,52.80
2018-08-23T10:16:09.675Z,51.95
2018-08-23T10:17:19.336Z,52.38
2018-08-23T10:18:28.998Z,52.14
2018-08-23T10:19:39.225Z,52.06
2018-08-23T10:20:55.315Z,52.21
2018-08-23T10:22:05.602Z,52.43
2018-08-23T10:23:26.628Z,52.79
2018-08-23T10:24:35.261Z,53.36
2018-08-23T10:25:47.447Z,52.23
2018-08-23T10:26:53.373Z,51.77
2018-08-23T10:27:59.042Z,52.06
2018-08-23T10:29:05.491Z,53.07
2018-08-23T10:30:11.717Z,52.60
2018-08-23T10:32:40.767Z,52.34
2018-08-23T10:33:47.377Z,51.94
2018-08-23T10:34:53.934Z,51.75
2018-08-23T10:35:59.332Z,50.21
2018-08-23T10:37:04.526Z,50.51
2018-08-23T10:38:09.505Z,50.54
2018-08-23T10:39:14.570Z,50.49
2018-08-23T10:40:19.802Z,50.03
2018-08-23T10:41:24.907Z,48.95
2018-08-23T10:42:31.127Z,48.71
2018-08-23T10:43:40.762Z,48.56
2018-08-23T10:44:47.062Z,48.85
2018-08-23T10:45:55.298Z,48.79
2018-08-23T10:47:02.763Z,49.60
2018-08-23T10:48:12.357Z,49.23
2018-08-23T10:49:18.195Z,49.92
2018-08-23T10:50:24.435Z,48.73
2018-08-23T10:51:30.260Z,49.47
2018-08-23T10:52:35.027Z,48.02
2018-08-23T10:53:40.333Z,47.36
2018-08-23T10:55:54.645Z,48.22
2018-08-23T10:57:00.352Z,47.65
2018-08-23T10:58:05.157Z,48.04
2018-08-23T10:59:10.249Z,48.65
2018-08-23T11:00:16.035Z,49.09
2018-08-23T11:01:21.904Z,47.84
2018-08-23T11:02:27.289Z,44.56
2018-08-23T11:03:32.027Z,45.48
2018-08-23T11:04:37.836Z,44.90
2018-08-23T11:05:47.791Z,44.99
2018-08-23T11:06:58.936Z,44.64
2018-08-23T11:08:10.507Z,45.17
2018-08-23T11:09:20.665Z,45.94
2018-08-23T11:10:30.407Z,46.47
2018-08-23T11:11:38.397Z,46.02
2018-08-23T11:12:48.468Z,45.87
2018-08-23T11:13:53.232Z,45.90
2018-08-23T11:15:01.432Z,45.03
2018-08-23T11:16:12.265Z,43.77
2018-08-23T11:21:37.071Z,43.81
2018-08-23T11:22:42.263Z,43.97
2018-08-23T11:23:47.474Z,43.22
2018-08-23T11:24:57.267Z,42.28
2018-08-23T11:26:02.247Z,42.56
2018-08-23T11:27:11.181Z,42.37
2018-08-23T11:28:21.755Z,42.80
2018-08-23T11:29:34.663Z,42.08
2018-08-23T11:30:39.842Z,43.07
2018-08-23T11:31:46.356Z,43.02
2018-08-23T11:32:53.661Z,44.10
2018-08-23T11:33:58.837Z,42.80
2018-08-23T11:35:04.743Z,43.12
2018-08-23T11:36:11.909Z,42.96
2018-08-23T11:37:16.908Z,42.79
2018-08-23T11:38:22.760Z,42.65
2018-08-23T11:39:28.934Z,41.69
2018-08-23T11:40:34.499Z,41.68
2018-08-23T11:41:39.212Z,41.23
2018-08-23T11:42:43.875Z,40.14
2018-08-23T11:43:49.204Z,40.23
2018-08-23T11:44:53.814Z,40.83
2018-08-23T11:46:07.110Z,40.63
2018-08-23T11:47:13.282Z,39.69
2018-08-23T11:48:19.066Z,39.43
2018-08-23T11:49:25.597Z,39.83
2018-08-23T11:50:30.740Z,39.64
2018-08-23T11:51:35.682Z,39.04
2018-08-23T11:52:44.351Z,39.88
2018-08-23T11:53:50.294Z,40.90
2018-08-23T11:54:55.798Z,40.56
2018-08-23T11:56:02.008Z,41.28
2018-08-23T11:57:07.086Z,39.70
2018-08-23T11:58:11.968Z,41.29
2018-08-23T11:59:18.388Z,41.37
2018-08-23T12:00:23.566Z,40.97
2018-08-23T12:01:31.065Z,41.28
2018-08-23T12:02:36.343Z,42.49
2018-08-23T12:03:43.337Z,42.48
2018-08-23T12:04:48.125Z,43.58
2018-08-23T12:05:52.996Z,43.00
2018-08-23T12:06:58.618Z,42.02
2018-08-23T12:08:03.399Z,41.22
2018-08-23T12:09:09.069Z,41.87
2018-08-23T12:10:16.887Z,41.93
2018-08-23T12:11:22.071Z,40.62
2018-08-23T12:12:26.955Z,41.89
2018-08-23T12:54:12.664Z,34.14
2018-08-23T12:55:20.648Z,34.15
2018-08-23T12:56:25.564Z,33.95
2018-08-23T12:57:32.799Z,33.72
2018-08-23T12:58:38.230Z,34.15
2018-08-23T12:59:43.800Z,32.06
2018-08-23T13:00:48.778Z,32.51
2018-08-23T13:01:54.363Z,31.91
2018-08-23T13:03:00.645Z,32.19
2018-08-23T13:04:05.815Z,32.23
2018-08-23T13:05:13.910Z,31.81
2018-08-23T13:06:19.071Z,30.69
2018-08-23T13:07:24.430Z,31.82
2018-08-23T13:08:29.858Z,30.04
2018-08-23T13:09:35.389Z,28.93
2018-08-23T13:10:41.049Z,29.12
2018-08-23T13:11:49.663Z,29.88
2018-08-23T13:12:56.179Z,31.56
2018-08-23T13:14:01.339Z,30.24
2018-08-23T13:15:07.219Z,30.59
2018-08-23T13:16:13.624Z,30.82
2018-08-23T13:17:22.080Z,30.82
2018-08-23T13:18:28.544Z,29.92
2018-08-23T13:19:38.411Z,29.90
2018-08-23T13:20:44.372Z,29.82
2018-08-23T13:21:54.428Z,29.27
2018-08-23T13:23:03.288Z,31.73
2018-08-23T13:24:08.836Z,32.22
2018-08-23T13:25:16.249Z,32.05
2018-08-23T13:26:21.123Z,31.64
2018-08-23T13:27:29.916Z,30.65
2018-08-23T13:28:34.734Z,31.15
2018-08-23T13:29:41.128Z,31.15
2018-08-23T13:30:46.531Z,31.28
2018-08-23T13:31:54.172Z,31.26
2018-08-23T13:32:58.911Z,32.01
2018-08-23T13:34:03.742Z,31.86
2018-08-23T13:35:12.507Z,32.63
2018-08-23T13:36:17.388Z,32.11
2018-08-23T13:37:22.505Z,32.74
2018-08-23T13:38:27.293Z,32.54
2018-08-23T13:39:32.505Z,32.49
2018-08-23T13:40:38.929Z,32.38
2018-08-23T13:41:44.545Z,32.73
2018-08-23T13:42:49.839Z,33.37
2018-08-23T13:43:56.265Z,33.85
2018-08-23T13:45:00.933Z,33.68
2018-08-23T13:46:06.324Z,33.43
2018-08-23T13:47:11.093Z,33.91
2018-08-23T13:48:16.700Z,34.34
2018-08-23T13:49:23.424Z,34.61
2018-08-23T13:50:28.937Z,34.50
2018-08-23T13:51:33.506Z,33.58
2018-08-23T13:52:38.133Z,33.37
2018-08-23T13:53:43.413Z,32.95
2018-08-23T13:54:48.243Z,33.40
2018-08-23T13:55:53.399Z,33.60
2018-08-23T13:56:59.576Z,33.37
2018-08-23T13:58:04.358Z,33.67
2018-08-23T13:59:09.223Z,33.21
2018-08-23T14:00:18.908Z,33.27
2018-08-23T14:01:27.445Z,32.93
2018-08-23T14:02:33.597Z,31.69
2018-08-23T14:03:39.327Z,31.69
2018-08-23T14:04:44.634Z,32.47
2018-08-23T14:05:49.828Z,32.50
2018-08-23T14:06:54.700Z,31.09
2018-08-23T14:07:59.400Z,31.49
2018-08-23T14:09:05.545Z,31.26
2018-08-23T14:10:11.831Z,30.43
2018-08-23T14:11:17.396Z,30.12
2018-08-23T14:12:22.745Z,28.62
2018-08-23T14:13:27.401Z,28.38
2018-08-23T14:14:32.611Z,30.63
2018-08-23T14:15:43.726Z,32.49
2018-08-23T14:16:48.392Z,31.28
2018-08-23T14:17:54.198Z,31.20
2018-08-23T14:18:58.858Z,31.45
2018-08-23T14:20:03.495Z,33.34
2018-08-23T14:21:11.081Z,34.90
2018-08-23T14:22:16.455Z,35.83
2018-08-23T14:23:22.587Z,35.66
2018-08-23T14:24:28.710Z,35.57
2018-08-23T14:25:34.590Z,35.25
2018-08-23T14:26:41.507Z,34.74
2018-08-23T14:27:47.836Z,33.12
2018-08-23T14:28:52.631Z,31.77
2018-08-23T14:30:00.047Z,30.21
2018-08-23T14:31:06.242Z,29.73
2018-08-23T14:32:11.767Z,30.29
2018-08-23T14:33:18.360Z,28.79
2018-08-23T14:34:23.645Z,30.22
2018-08-23T14:35:28.723Z,29.49
2018-08-23T14:36:35.205Z,29.83
2018-08-23T14:37:40.435Z,29.01
2018-08-23T14:38:45.225Z,28.02
2018-08-23T14:39:50.513Z,28.14
2018-08-23T14:40:55.360Z,27.76
2018-08-23T14:42:00.999Z,28.43
2018-08-23T14:43:06.222Z,29.94
2018-08-23T14:44:11.841Z,30.71
2018-08-23T14:45:27.089Z,31.11
2018-08-23T14:46:36.832Z,30.84
2018-08-23T14:47:47.337Z,30.83
2018-08-23T14:48:52.103Z,30.48
2018-08-23T14:49:57.404Z,31.10
2018-08-23T14:51:02.022Z,31.69
2018-08-23T14:52:08.810Z,32.46
2018-08-23T14:53:18.551Z,32.87
2018-08-23T14:54:28.267Z,33.18
2018-08-23T14:55:38.003Z,33.57
2018-08-23T14:56:48.254Z,34.03
2018-08-23T14:57:53.000Z,33.15
2018-08-23T14:58:58.524Z,33.53
2018-08-23T15:00:03.340Z,32.97
2018-08-23T15:01:09.749Z,33.14
2018-08-23T15:02:15.247Z,31.08
2018-08-23T15:03:21.293Z,31.11
2018-08-23T15:04:25.923Z,31.80
2018-08-23T15:05:33.459Z,32.26
2018-08-23T15:06:39.722Z,30.55
2018-08-23T15:07:45.939Z,30.00
2018-08-23T15:08:51.557Z,29.59
2018-08-23T15:09:59.260Z,29.39
2018-08-23T15:11:04.729Z,28.97
2018-08-23T15:12:09.903Z,29.19